sensor_id;sensor_type;location;lat;lon;timestamp;P1;durP1;ratioP1;P2;durP2;ratioP2
54033;SDS011;39952;40.122;18.294;2022-07-29T00:01:03;14.55;;;9.43;;
54033;SDS011;39952;40.122;18.294;2022-07-29T00:04:10;14.60;;;9.00;;
54033;SDS011;39952;40.122;18.294;2022-07-29T00:07:19;14.52;;;8.70;;
54033;SDS011;39952;40.122;18.294;2022-07-29T00:10:26;14.90;;;9.60;;
54033;SDS011;39952;40.122;18.294;2022-07-29T00:13:33;14.07;;;8.95;;
54033;SDS011;39952;40.122;18.294;2022-07-29T00:16:40;12.45;;;8.77;;
54033;SDS011;39952;40.122;18.294;2022-07-29T00:19:46;11.35;;;8.55;;
54033;SDS011;39952;40.122;18.294;2022-07-29T00:22:54;14.32;;;9.00;;
54033;SDS011;39952;40.122;18.294;2022-07-29T00:26:01;16.33;;;9.55;;
54033;SDS011;39952;40.122;18.294;2022-07-29T00:29:08;15.98;;;8.75;;
54033;SDS011;39952;40.122;18.294;2022-07-29T00:32:35;12.75;;;9.05;;
54033;SDS011;39952;40.122;18.294;2022-07-29T00:35:42;12.65;;;9.23;;
54033;SDS011;39952;40.122;18.294;2022-07-29T00:38:53;14.63;;;8.75;;
54033;SDS011;39952;40.122;18.294;2022-07-29T00:42:01;12.20;;;8.65;;
54033;SDS011;39952;40.122;18.294;2022-07-29T00:45:09;11.35;;;8.18;;
54033;SDS011;39952;40.122;18.294;2022-07-29T00:48:16;13.50;;;9.60;;
54033;SDS011;39952;40.122;18.294;2022-07-29T00:51:23;13.43;;;9.13;;
54033;SDS011;39952;40.122;18.294;2022-07-29T00:54:33;13.85;;;8.98;;
54033;SDS011;39952;40.122;18.294;2022-07-29T00:57:40;12.10;;;7.82;;
54033;SDS011;39952;40.122;18.294;2022-07-29T01:00:48;12.53;;;9.47;;
54033;SDS011;39952;40.122;18.294;2022-07-29T01:03:55;14.18;;;9.25;;
54033;SDS011;39952;40.122;18.294;2022-07-29T01:07:02;13.75;;;9.10;;
54033;SDS011;39952;40.122;18.294;2022-07-29T01:10:11;13.60;;;8.45;;
54033;SDS011;39952;40.122;18.294;2022-07-29T01:13:20;13.48;;;8.55;;
54033;SDS011;39952;40.122;18.294;2022-07-29T01:16:29;13.65;;;8.85;;
54033;SDS011;39952;40.122;18.294;2022-07-29T01:19:48;13.52;;;8.70;;
54033;SDS011;39952;40.122;18.294;2022-07-29T01:26:51;13.13;;;8.63;;
54033;SDS011;39952;40.122;18.294;2022-07-29T01:30:05;14.60;;;8.90;;
54033;SDS011;39952;40.122;18.294;2022-07-29T01:33:13;16.75;;;8.02;;
54033;SDS011;39952;40.122;18.294;2022-07-29T01:36:39;11.65;;;8.30;;
54033;SDS011;39952;40.122;18.294;2022-07-29T01:39:52;11.90;;;8.73;;
54033;SDS011;39952;40.122;18.294;2022-07-29T01:43:03;12.02;;;8.00;;
54033;SDS011;39952;40.122;18.294;2022-07-29T01:46:17;11.85;;;8.30;;
54033;SDS011;39952;40.122;18.294;2022-07-29T01:49:31;12.35;;;8.52;;
54033;SDS011;39952;40.122;18.294;2022-07-29T01:52:44;13.70;;;8.45;;
54033;SDS011;39952;40.122;18.294;2022-07-29T01:55:55;13.25;;;8.60;;
54033;SDS011;39952;40.122;18.294;2022-07-29T01:59:06;14.95;;;10.45;;
54033;SDS011;39952;40.122;18.294;2022-07-29T02:02:15;13.10;;;8.77;;
54033;SDS011;39952;40.122;18.294;2022-07-29T02:05:23;12.77;;;8.63;;
54033;SDS011;39952;40.122;18.294;2022-07-29T02:08:34;13.07;;;8.10;;
54033;SDS011;39952;40.122;18.294;2022-07-29T02:11:46;16.65;;;8.73;;
54033;SDS011;39952;40.122;18.294;2022-07-29T02:14:55;13.13;;;8.68;;
54033;SDS011;39952;40.122;18.294;2022-07-29T02:18:09;15.15;;;8.80;;
54033;SDS011;39952;40.122;18.294;2022-07-29T02:21:21;11.93;;;9.15;;
54033;SDS011;39952;40.122;18.294;2022-07-29T02:24:30;14.45;;;8.38;;
54033;SDS011;39952;40.122;18.294;2022-07-29T02:27:39;12.95;;;8.45;;
54033;SDS011;39952;40.122;18.294;2022-07-29T02:33:57;14.00;;;8.15;;
54033;SDS011;39952;40.122;18.294;2022-07-29T02:37:05;11.82;;;8.60;;
54033;SDS011;39952;40.122;18.294;2022-07-29T02:43:22;14.85;;;9.68;;
54033;SDS011;39952;40.122;18.294;2022-07-29T02:46:31;15.02;;;9.18;;
54033;SDS011;39952;40.122;18.294;2022-07-29T02:49:42;15.73;;;10.18;;
54033;SDS011;39952;40.122;18.294;2022-07-29T02:52:57;14.57;;;8.90;;
54033;SDS011;39952;40.122;18.294;2022-07-29T02:56:08;13.27;;;8.95;;
54033;SDS011;39952;40.122;18.294;2022-07-29T02:59:20;15.10;;;8.73;;
54033;SDS011;39952;40.122;18.294;2022-07-29T03:02:33;14.68;;;8.80;;
54033;SDS011;39952;40.122;18.294;2022-07-29T03:05:44;17.90;;;9.35;;
54033;SDS011;39952;40.122;18.294;2022-07-29T03:08:51;13.97;;;8.50;;
54033;SDS011;39952;40.122;18.294;2022-07-29T03:11:58;13.77;;;9.77;;
54033;SDS011;39952;40.122;18.294;2022-07-29T03:15:07;15.73;;;9.30;;
54033;SDS011;39952;40.122;18.294;2022-07-29T03:18:15;16.80;;;11.25;;
54033;SDS011;39952;40.122;18.294;2022-07-29T03:21:24;14.35;;;9.27;;
54033;SDS011;39952;40.122;18.294;2022-07-29T03:24:31;15.67;;;9.13;;
54033;SDS011;39952;40.122;18.294;2022-07-29T03:27:39;19.70;;;9.43;;
54033;SDS011;39952;40.122;18.294;2022-07-29T03:30:46;14.98;;;9.65;;
54033;SDS011;39952;40.122;18.294;2022-07-29T03:33:53;16.17;;;9.02;;
54033;SDS011;39952;40.122;18.294;2022-07-29T03:37:01;14.25;;;9.70;;
54033;SDS011;39952;40.122;18.294;2022-07-29T03:40:09;16.50;;;8.90;;
54033;SDS011;39952;40.122;18.294;2022-07-29T03:43:17;13.50;;;9.30;;
54033;SDS011;39952;40.122;18.294;2022-07-29T03:46:25;16.83;;;9.48;;
54033;SDS011;39952;40.122;18.294;2022-07-29T03:49:34;14.52;;;9.43;;
54033;SDS011;39952;40.122;18.294;2022-07-29T03:55:52;14.35;;;8.65;;
54033;SDS011;39952;40.122;18.294;2022-07-29T03:59:03;15.00;;;8.77;;
54033;SDS011;39952;40.122;18.294;2022-07-29T04:02:10;16.80;;;9.50;;
54033;SDS011;39952;40.122;18.294;2022-07-29T04:05:19;15.60;;;9.23;;
54033;SDS011;39952;40.122;18.294;2022-07-29T04:08:27;12.82;;;8.88;;
54033;SDS011;39952;40.122;18.294;2022-07-29T04:11:34;16.80;;;8.52;;
54033;SDS011;39952;40.122;18.294;2022-07-29T04:14:42;12.02;;;8.65;;
54033;SDS011;39952;40.122;18.294;2022-07-29T04:17:49;11.35;;;8.35;;
54033;SDS011;39952;40.122;18.294;2022-07-29T04:20:56;14.52;;;8.60;;
54033;SDS011;39952;40.122;18.294;2022-07-29T04:24:07;13.60;;;8.98;;
54033;SDS011;39952;40.122;18.294;2022-07-29T04:27:14;14.27;;;8.45;;
54033;SDS011;39952;40.122;18.294;2022-07-29T04:30:20;15.27;;;9.30;;
54033;SDS011;39952;40.122;18.294;2022-07-29T04:33:27;16.92;;;9.38;;
54033;SDS011;39952;40.122;18.294;2022-07-29T04:36:34;14.70;;;8.60;;
54033;SDS011;39952;40.122;18.294;2022-07-29T04:39:42;13.95;;;9.38;;
54033;SDS011;39952;40.122;18.294;2022-07-29T04:42:49;15.63;;;9.45;;
54033;SDS011;39952;40.122;18.294;2022-07-29T04:45:56;15.82;;;9.10;;
54033;SDS011;39952;40.122;18.294;2022-07-29T04:49:03;15.13;;;8.73;;
54033;SDS011;39952;40.122;18.294;2022-07-29T04:52:09;17.85;;;8.35;;
54033;SDS011;39952;40.122;18.294;2022-07-29T04:55:18;12.77;;;8.70;;
54033;SDS011;39952;40.122;18.294;2022-07-29T04:58:25;14.23;;;9.27;;
54033;SDS011;39952;40.122;18.294;2022-07-29T05:01:32;15.60;;;8.77;;
54033;SDS011;39952;40.122;18.294;2022-07-29T05:04:39;12.80;;;8.73;;
54033;SDS011;39952;40.122;18.294;2022-07-29T05:07:46;15.27;;;8.82;;
54033;SDS011;39952;40.122;18.294;2022-07-29T05:10:54;15.05;;;8.68;;
54033;SDS011;39952;40.122;18.294;2022-07-29T05:14:01;17.45;;;8.13;;
54033;SDS011;39952;40.122;18.294;2022-07-29T05:17:08;14.27;;;7.75;;
54033;SDS011;39952;40.122;18.294;2022-07-29T05:20:14;13.38;;;8.57;;
54033;SDS011;39952;40.122;18.294;2022-07-29T05:23:23;15.57;;;8.00;;
54033;SDS011;39952;40.122;18.294;2022-07-29T05:26:31;12.43;;;7.57;;
54033;SDS011;39952;40.122;18.294;2022-07-29T05:29:38;14.83;;;8.17;;
54033;SDS011;39952;40.122;18.294;2022-07-29T05:32:45;11.00;;;7.45;;
54033;SDS011;39952;40.122;18.294;2022-07-29T05:35:52;11.85;;;7.15;;
54033;SDS011;39952;40.122;18.294;2022-07-29T05:39:02;12.60;;;7.80;;
54033;SDS011;39952;40.122;18.294;2022-07-29T05:42:11;11.75;;;6.78;;
54033;SDS011;39952;40.122;18.294;2022-07-29T05:45:18;14.77;;;7.82;;
54033;SDS011;39952;40.122;18.294;2022-07-29T05:48:24;14.18;;;7.88;;
54033;SDS011;39952;40.122;18.294;2022-07-29T05:51:31;10.45;;;7.25;;
54033;SDS011;39952;40.122;18.294;2022-07-29T05:54:38;12.90;;;7.22;;
54033;SDS011;39952;40.122;18.294;2022-07-29T05:57:46;11.90;;;6.70;;
54033;SDS011;39952;40.122;18.294;2022-07-29T06:04:03;12.82;;;6.95;;
54033;SDS011;39952;40.122;18.294;2022-07-29T06:07:10;9.93;;;7.05;;
54033;SDS011;39952;40.122;18.294;2022-07-29T06:10:17;9.82;;;6.95;;
54033;SDS011;39952;40.122;18.294;2022-07-29T06:13:26;10.77;;;7.47;;
54033;SDS011;39952;40.122;18.294;2022-07-29T06:16:33;11.70;;;7.20;;
54033;SDS011;39952;40.122;18.294;2022-07-29T06:19:40;10.05;;;6.80;;
54033;SDS011;39952;40.122;18.294;2022-07-29T06:22:46;12.10;;;7.03;;
54033;SDS011;39952;40.122;18.294;2022-07-29T06:25:53;13.13;;;7.15;;
54033;SDS011;39952;40.122;18.294;2022-07-29T06:29:02;10.48;;;7.93;;
54033;SDS011;39952;40.122;18.294;2022-07-29T06:32:09;11.73;;;6.95;;
54033;SDS011;39952;40.122;18.294;2022-07-29T06:35:15;10.00;;;6.65;;
54033;SDS011;39952;40.122;18.294;2022-07-29T06:38:38;9.95;;;6.10;;
54033;SDS011;39952;40.122;18.294;2022-07-29T06:41:48;11.43;;;6.35;;
54033;SDS011;39952;40.122;18.294;2022-07-29T06:45:01;10.85;;;7.20;;
54033;SDS011;39952;40.122;18.294;2022-07-29T06:48:11;9.52;;;6.07;;
54033;SDS011;39952;40.122;18.294;2022-07-29T06:51:18;9.88;;;6.53;;
54033;SDS011;39952;40.122;18.294;2022-07-29T06:54:25;9.93;;;5.80;;
54033;SDS011;39952;40.122;18.294;2022-07-29T06:57:31;11.30;;;6.70;;
54033;SDS011;39952;40.122;18.294;2022-07-29T07:00:39;10.18;;;6.82;;
54033;SDS011;39952;40.122;18.294;2022-07-29T07:03:46;11.25;;;6.60;;
54033;SDS011;39952;40.122;18.294;2022-07-29T07:06:53;9.07;;;6.00;;
54033;SDS011;39952;40.122;18.294;2022-07-29T07:10:00;10.98;;;7.25;;
54033;SDS011;39952;40.122;18.294;2022-07-29T07:13:07;11.25;;;6.53;;
54033;SDS011;39952;40.122;18.294;2022-07-29T07:16:15;11.38;;;6.50;;
54033;SDS011;39952;40.122;18.294;2022-07-29T07:19:22;11.10;;;6.43;;
54033;SDS011;39952;40.122;18.294;2022-07-29T07:22:29;11.15;;;6.13;;
54033;SDS011;39952;40.122;18.294;2022-07-29T07:25:38;12.75;;;7.18;;
54033;SDS011;39952;40.122;18.294;2022-07-29T07:28:45;22.50;;;7.10;;
54033;SDS011;39952;40.122;18.294;2022-07-29T07:31:53;14.10;;;6.97;;
54033;SDS011;39952;40.122;18.294;2022-07-29T07:35:04;11.75;;;6.72;;
54033;SDS011;39952;40.122;18.294;2022-07-29T07:38:12;13.38;;;6.05;;
54033;SDS011;39952;40.122;18.294;2022-07-29T07:41:19;13.10;;;6.70;;
54033;SDS011;39952;40.122;18.294;2022-07-29T07:44:26;9.77;;;6.18;;
54033;SDS011;39952;40.122;18.294;2022-07-29T07:47:34;8.82;;;5.32;;
54033;SDS011;39952;40.122;18.294;2022-07-29T07:53:48;10.05;;;6.03;;
54033;SDS011;39952;40.122;18.294;2022-07-29T07:56:55;9.75;;;6.60;;
54033;SDS011;39952;40.122;18.294;2022-07-29T08:00:01;10.77;;;6.43;;
54033;SDS011;39952;40.122;18.294;2022-07-29T08:03:17;11.68;;;7.07;;
54033;SDS011;39952;40.122;18.294;2022-07-29T08:06:24;9.35;;;5.95;;
54033;SDS011;39952;40.122;18.294;2022-07-29T08:09:31;10.63;;;6.15;;
54033;SDS011;39952;40.122;18.294;2022-07-29T08:12:38;9.52;;;6.38;;
54033;SDS011;39952;40.122;18.294;2022-07-29T08:15:44;9.45;;;6.82;;
54033;SDS011;39952;40.122;18.294;2022-07-29T08:18:53;8.68;;;6.13;;
54033;SDS011;39952;40.122;18.294;2022-07-29T08:22:02;10.48;;;6.32;;
54033;SDS011;39952;40.122;18.294;2022-07-29T08:25:09;10.50;;;6.28;;
54033;SDS011;39952;40.122;18.294;2022-07-29T08:28:15;11.88;;;5.95;;
54033;SDS011;39952;40.122;18.294;2022-07-29T08:31:22;8.25;;;5.90;;
54033;SDS011;39952;40.122;18.294;2022-07-29T08:34:31;12.25;;;5.90;;
54033;SDS011;39952;40.122;18.294;2022-07-29T08:37:37;9.35;;;6.90;;
54033;SDS011;39952;40.122;18.294;2022-07-29T08:40:44;11.38;;;6.15;;
54033;SDS011;39952;40.122;18.294;2022-07-29T08:43:51;10.48;;;6.30;;
54033;SDS011;39952;40.122;18.294;2022-07-29T08:46:58;8.75;;;6.13;;
54033;SDS011;39952;40.122;18.294;2022-07-29T08:50:07;10.45;;;6.03;;
54033;SDS011;39952;40.122;18.294;2022-07-29T08:53:16;10.60;;;6.70;;
54033;SDS011;39952;40.122;18.294;2022-07-29T08:56:23;8.75;;;5.82;;
54033;SDS011;39952;40.122;18.294;2022-07-29T08:59:30;8.40;;;6.20;;
54033;SDS011;39952;40.122;18.294;2022-07-29T09:02:41;10.70;;;5.93;;
54033;SDS011;39952;40.122;18.294;2022-07-29T09:05:54;9.75;;;6.30;;
54033;SDS011;39952;40.122;18.294;2022-07-29T09:09:01;8.82;;;5.75;;
54033;SDS011;39952;40.122;18.294;2022-07-29T09:12:08;9.30;;;6.05;;
54033;SDS011;39952;40.122;18.294;2022-07-29T09:15:17;8.27;;;5.32;;
54033;SDS011;39952;40.122;18.294;2022-07-29T09:18:32;10.30;;;5.82;;
54033;SDS011;39952;40.122;18.294;2022-07-29T09:21:42;9.68;;;5.88;;
54033;SDS011;39952;40.122;18.294;2022-07-29T09:25:05;10.10;;;5.65;;
54033;SDS011;39952;40.122;18.294;2022-07-29T09:28:13;7.97;;;5.68;;
54033;SDS011;39952;40.122;18.294;2022-07-29T09:31:22;9.20;;;5.60;;
54033;SDS011;39952;40.122;18.294;2022-07-29T09:34:40;7.05;;;4.72;;
54033;SDS011;39952;40.122;18.294;2022-07-29T09:37:49;7.15;;;5.47;;
54033;SDS011;39952;40.122;18.294;2022-07-29T09:40:56;8.50;;;5.38;;
54033;SDS011;39952;40.122;18.294;2022-07-29T09:44:04;8.68;;;5.93;;
54033;SDS011;39952;40.122;18.294;2022-07-29T09:47:10;8.32;;;6.13;;
54033;SDS011;39952;40.122;18.294;2022-07-29T09:53:33;8.88;;;5.53;;
54033;SDS011;39952;40.122;18.294;2022-07-29T09:56:42;9.32;;;6.25;;
54033;SDS011;39952;40.122;18.294;2022-07-29T09:59:54;9.65;;;5.70;;
54033;SDS011;39952;40.122;18.294;2022-07-29T10:03:03;9.00;;;5.50;;
54033;SDS011;39952;40.122;18.294;2022-07-29T10:06:10;9.75;;;6.13;;
54033;SDS011;39952;40.122;18.294;2022-07-29T10:09:19;7.78;;;6.05;;
54033;SDS011;39952;40.122;18.294;2022-07-29T10:12:26;10.68;;;7.03;;
54033;SDS011;39952;40.122;18.294;2022-07-29T10:15:34;10.83;;;9.33;;
54033;SDS011;39952;40.122;18.294;2022-07-29T10:18:44;8.20;;;6.03;;
54033;SDS011;39952;40.122;18.294;2022-07-29T10:21:51;11.75;;;6.80;;
54033;SDS011;39952;40.122;18.294;2022-07-29T10:25:03;9.77;;;5.75;;
54033;SDS011;39952;40.122;18.294;2022-07-29T10:28:10;9.50;;;5.78;;
54033;SDS011;39952;40.122;18.294;2022-07-29T10:31:22;9.25;;;5.30;;
54033;SDS011;39952;40.122;18.294;2022-07-29T10:34:46;9.63;;;6.32;;
54033;SDS011;39952;40.122;18.294;2022-07-29T10:38:15;7.43;;;5.72;;
54033;SDS011;39952;40.122;18.294;2022-07-29T10:41:39;7.60;;;5.93;;
54033;SDS011;39952;40.122;18.294;2022-07-29T10:44:55;9.15;;;5.47;;
54033;SDS011;39952;40.122;18.294;2022-07-29T10:51:10;8.35;;;5.90;;
54033;SDS011;39952;40.122;18.294;2022-07-29T10:54:17;10.30;;;5.83;;
54033;SDS011;39952;40.122;18.294;2022-07-29T10:57:28;8.25;;;5.78;;
54033;SDS011;39952;40.122;18.294;2022-07-29T11:00:36;9.70;;;6.13;;
54033;SDS011;39952;40.122;18.294;2022-07-29T11:03:44;8.48;;;6.20;;
54033;SDS011;39952;40.122;18.294;2022-07-29T11:07:06;9.82;;;6.00;;
54033;SDS011;39952;40.122;18.294;2022-07-29T11:10:20;9.40;;;5.82;;
54033;SDS011;39952;40.122;18.294;2022-07-29T11:13:48;9.20;;;6.15;;
54033;SDS011;39952;40.122;18.294;2022-07-29T11:17:00;12.43;;;7.25;;
54033;SDS011;39952;40.122;18.294;2022-07-29T11:23:38;8.20;;;6.25;;
54033;SDS011;39952;40.122;18.294;2022-07-29T11:30:18;8.88;;;6.38;;
54033;SDS011;39952;40.122;18.294;2022-07-29T11:33:29;7.57;;;5.55;;
54033;SDS011;39952;40.122;18.294;2022-07-29T11:36:36;11.38;;;5.53;;
54033;SDS011;39952;40.122;18.294;2022-07-29T11:40:35;8.73;;;6.47;;
54033;SDS011;39952;40.122;18.294;2022-07-29T11:43:45;7.85;;;5.95;;
54033;SDS011;39952;40.122;18.294;2022-07-29T11:46:53;9.95;;;6.05;;
54033;SDS011;39952;40.122;18.294;2022-07-29T11:50:01;10.57;;;5.82;;
54033;SDS011;39952;40.122;18.294;2022-07-29T11:53:10;8.75;;;5.53;;
54033;SDS011;39952;40.122;18.294;2022-07-29T11:56:20;8.30;;;5.47;;
54033;SDS011;39952;40.122;18.294;2022-07-29T11:59:27;7.82;;;5.32;;
54033;SDS011;39952;40.122;18.294;2022-07-29T12:02:41;8.55;;;5.75;;
54033;SDS011;39952;40.122;18.294;2022-07-29T12:05:49;9.27;;;6.30;;
54033;SDS011;39952;40.122;18.294;2022-07-29T12:08:56;9.68;;;5.90;;
54033;SDS011;39952;40.122;18.294;2022-07-29T12:12:03;10.77;;;5.18;;
54033;SDS011;39952;40.122;18.294;2022-07-29T12:15:11;9.10;;;5.55;;
54033;SDS011;39952;40.122;18.294;2022-07-29T12:18:26;9.13;;;5.38;;
54033;SDS011;39952;40.122;18.294;2022-07-29T12:21:43;8.98;;;5.30;;
54033;SDS011;39952;40.122;18.294;2022-07-29T12:24:50;8.80;;;5.80;;
54033;SDS011;39952;40.122;18.294;2022-07-29T12:28:00;8.68;;;5.70;;
54033;SDS011;39952;40.122;18.294;2022-07-29T12:31:12;8.35;;;5.68;;
54033;SDS011;39952;40.122;18.294;2022-07-29T12:34:22;8.18;;;5.57;;
54033;SDS011;39952;40.122;18.294;2022-07-29T12:37:30;9.30;;;6.00;;
54033;SDS011;39952;40.122;18.294;2022-07-29T12:40:36;8.82;;;5.43;;
54033;SDS011;39952;40.122;18.294;2022-07-29T12:43:51;9.95;;;5.90;;
54033;SDS011;39952;40.122;18.294;2022-07-29T12:47:02;7.65;;;5.72;;
54033;SDS011;39952;40.122;18.294;2022-07-29T12:50:11;11.23;;;5.93;;
54033;SDS011;39952;40.122;18.294;2022-07-29T12:53:23;7.90;;;5.30;;
54033;SDS011;39952;40.122;18.294;2022-07-29T12:56:31;8.63;;;5.90;;
54033;SDS011;39952;40.122;18.294;2022-07-29T12:59:58;13.20;;;6.20;;
54033;SDS011;39952;40.122;18.294;2022-07-29T13:03:14;8.70;;;5.53;;
54033;SDS011;39952;40.122;18.294;2022-07-29T13:06:28;11.20;;;5.32;;
54033;SDS011;39952;40.122;18.294;2022-07-29T13:09:37;9.43;;;5.60;;
54033;SDS011;39952;40.122;18.294;2022-07-29T13:13:04;8.98;;;5.93;;
54033;SDS011;39952;40.122;18.294;2022-07-29T13:16:12;9.65;;;5.32;;
54033;SDS011;39952;40.122;18.294;2022-07-29T13:19:19;8.75;;;5.50;;
54033;SDS011;39952;40.122;18.294;2022-07-29T13:22:39;8.57;;;5.60;;
54033;SDS011;39952;40.122;18.294;2022-07-29T13:25:47;8.80;;;5.57;;
54033;SDS011;39952;40.122;18.294;2022-07-29T13:28:54;8.53;;;5.73;;
54033;SDS011;39952;40.122;18.294;2022-07-29T13:32:01;9.13;;;5.57;;
54033;SDS011;39952;40.122;18.294;2022-07-29T13:35:08;7.93;;;5.28;;
54033;SDS011;39952;40.122;18.294;2022-07-29T13:38:16;9.93;;;5.70;;
54033;SDS011;39952;40.122;18.294;2022-07-29T13:41:23;8.43;;;5.07;;
54033;SDS011;39952;40.122;18.294;2022-07-29T13:44:30;7.75;;;5.57;;
54033;SDS011;39952;40.122;18.294;2022-07-29T13:47:37;8.50;;;5.38;;
54033;SDS011;39952;40.122;18.294;2022-07-29T13:50:46;8.65;;;5.20;;
54033;SDS011;39952;40.122;18.294;2022-07-29T13:53:54;9.82;;;5.60;;
54033;SDS011;39952;40.122;18.294;2022-07-29T14:00:08;8.43;;;4.93;;
54033;SDS011;39952;40.122;18.294;2022-07-29T14:03:15;8.43;;;4.95;;
54033;SDS011;39952;40.122;18.294;2022-07-29T14:06:22;7.97;;;5.35;;
54033;SDS011;39952;40.122;18.294;2022-07-29T14:09:30;9.45;;;5.78;;
54033;SDS011;39952;40.122;18.294;2022-07-29T14:12:38;9.98;;;5.35;;
54033;SDS011;39952;40.122;18.294;2022-07-29T14:15:46;9.85;;;5.07;;
54033;SDS011;39952;40.122;18.294;2022-07-29T14:18:53;7.57;;;5.15;;
54033;SDS011;39952;40.122;18.294;2022-07-29T14:22:00;8.68;;;5.32;;
54033;SDS011;39952;40.122;18.294;2022-07-29T14:25:09;8.83;;;5.50;;
54033;SDS011;39952;40.122;18.294;2022-07-29T14:31:22;7.90;;;5.47;;
54033;SDS011;39952;40.122;18.294;2022-07-29T14:34:28;8.25;;;5.43;;
54033;SDS011;39952;40.122;18.294;2022-07-29T14:37:35;7.50;;;5.40;;
54033;SDS011;39952;40.122;18.294;2022-07-29T14:40:43;10.00;;;5.35;;
54033;SDS011;39952;40.122;18.294;2022-07-29T14:43:51;10.02;;;5.80;;
54033;SDS011;39952;40.122;18.294;2022-07-29T14:46:58;8.27;;;5.43;;
54033;SDS011;39952;40.122;18.294;2022-07-29T14:50:05;8.02;;;5.30;;
54033;SDS011;39952;40.122;18.294;2022-07-29T14:53:13;9.35;;;5.72;;
54033;SDS011;39952;40.122;18.294;2022-07-29T14:56:21;9.02;;;6.57;;
54033;SDS011;39952;40.122;18.294;2022-07-29T14:59:43;7.60;;;5.88;;
54033;SDS011;39952;40.122;18.294;2022-07-29T15:02:50;8.02;;;6.10;;
54033;SDS011;39952;40.122;18.294;2022-07-29T15:06:05;9.75;;;6.20;;
54033;SDS011;39952;40.122;18.294;2022-07-29T15:09:12;10.82;;;7.97;;
54033;SDS011;39952;40.122;18.294;2022-07-29T15:12:20;9.90;;;6.18;;
54033;SDS011;39952;40.122;18.294;2022-07-29T15:15:26;7.80;;;5.72;;
54033;SDS011;39952;40.122;18.294;2022-07-29T15:18:33;9.82;;;6.65;;
54033;SDS011;39952;40.122;18.294;2022-07-29T15:21:39;11.07;;;6.53;;
54033;SDS011;39952;40.122;18.294;2022-07-29T15:24:46;8.65;;;5.15;;
54033;SDS011;39952;40.122;18.294;2022-07-29T15:27:55;8.95;;;5.03;;
54033;SDS011;39952;40.122;18.294;2022-07-29T15:31:05;7.90;;;5.22;;
54033;SDS011;39952;40.122;18.294;2022-07-29T15:34:11;10.18;;;5.20;;
54033;SDS011;39952;40.122;18.294;2022-07-29T15:37:18;8.65;;;5.82;;
54033;SDS011;39952;40.122;18.294;2022-07-29T15:40:24;8.32;;;5.10;;
54033;SDS011;39952;40.122;18.294;2022-07-29T15:43:32;9.40;;;5.07;;
54033;SDS011;39952;40.122;18.294;2022-07-29T15:50:03;7.75;;;5.00;;
54033;SDS011;39952;40.122;18.294;2022-07-29T15:53:16;13.02;;;7.68;;
54033;SDS011;39952;40.122;18.294;2022-07-29T15:56:23;8.27;;;5.25;;
54033;SDS011;39952;40.122;18.294;2022-07-29T15:59:32;9.63;;;5.55;;
54033;SDS011;39952;40.122;18.294;2022-07-29T16:02:39;7.80;;;4.85;;
54033;SDS011;39952;40.122;18.294;2022-07-29T16:05:45;9.82;;;5.57;;
54033;SDS011;39952;40.122;18.294;2022-07-29T16:08:52;7.50;;;5.15;;
54033;SDS011;39952;40.122;18.294;2022-07-29T16:11:59;8.30;;;5.53;;
54033;SDS011;39952;40.122;18.294;2022-07-29T16:15:08;8.50;;;5.20;;
54033;SDS011;39952;40.122;18.294;2022-07-29T16:18:15;10.25;;;5.53;;
54033;SDS011;39952;40.122;18.294;2022-07-29T16:21:21;8.63;;;5.30;;
54033;SDS011;39952;40.122;18.294;2022-07-29T16:24:28;9.75;;;5.38;;
54033;SDS011;39952;40.122;18.294;2022-07-29T16:30:44;9.95;;;4.90;;
54033;SDS011;39952;40.122;18.294;2022-07-29T16:33:50;7.90;;;5.55;;
54033;SDS011;39952;40.122;18.294;2022-07-29T16:36:57;8.55;;;5.90;;
54033;SDS011;39952;40.122;18.294;2022-07-29T16:40:06;7.97;;;5.37;;
54033;SDS011;39952;40.122;18.294;2022-07-29T16:43:13;7.65;;;5.38;;
54033;SDS011;39952;40.122;18.294;2022-07-29T16:46:21;11.32;;;5.40;;
54033;SDS011;39952;40.122;18.294;2022-07-29T16:49:29;7.93;;;5.10;;
54033;SDS011;39952;40.122;18.294;2022-07-29T16:52:36;7.90;;;5.22;;
54033;SDS011;39952;40.122;18.294;2022-07-29T16:55:49;7.30;;;5.47;;
54033;SDS011;39952;40.122;18.294;2022-07-29T16:58:59;8.13;;;5.63;;
54033;SDS011;39952;40.122;18.294;2022-07-29T17:02:08;10.67;;;5.60;;
54033;SDS011;39952;40.122;18.294;2022-07-29T17:08:22;8.68;;;5.60;;
54033;SDS011;39952;40.122;18.294;2022-07-29T17:11:29;7.70;;;4.88;;
54033;SDS011;39952;40.122;18.294;2022-07-29T17:14:35;10.02;;;4.93;;
54033;SDS011;39952;40.122;18.294;2022-07-29T17:17:44;8.98;;;4.95;;
54033;SDS011;39952;40.122;18.294;2022-07-29T17:20:53;8.35;;;5.05;;
54033;SDS011;39952;40.122;18.294;2022-07-29T17:24:00;9.48;;;5.50;;
54033;SDS011;39952;40.122;18.294;2022-07-29T17:27:06;7.70;;;5.15;;
54033;SDS011;39952;40.122;18.294;2022-07-29T17:30:13;7.28;;;4.82;;
54033;SDS011;39952;40.122;18.294;2022-07-29T17:33:21;8.45;;;5.30;;
54033;SDS011;39952;40.122;18.294;2022-07-29T17:36:28;10.15;;;5.30;;
54033;SDS011;39952;40.122;18.294;2022-07-29T17:39:35;8.07;;;5.88;;
54033;SDS011;39952;40.122;18.294;2022-07-29T17:42:44;8.35;;;5.65;;
54033;SDS011;39952;40.122;18.294;2022-07-29T17:45:51;7.32;;;5.20;;
54033;SDS011;39952;40.122;18.294;2022-07-29T17:49:02;7.82;;;5.00;;
54033;SDS011;39952;40.122;18.294;2022-07-29T17:52:09;8.30;;;5.68;;
54033;SDS011;39952;40.122;18.294;2022-07-29T17:55:16;11.20;;;5.38;;
54033;SDS011;39952;40.122;18.294;2022-07-29T17:58:23;9.50;;;5.50;;
54033;SDS011;39952;40.122;18.294;2022-07-29T18:01:30;9.95;;;5.43;;
54033;SDS011;39952;40.122;18.294;2022-07-29T18:04:38;9.32;;;5.50;;
54033;SDS011;39952;40.122;18.294;2022-07-29T18:07:45;9.35;;;5.32;;
54033;SDS011;39952;40.122;18.294;2022-07-29T18:10:52;8.27;;;4.88;;
54033;SDS011;39952;40.122;18.294;2022-07-29T18:13:59;7.78;;;5.50;;
54033;SDS011;39952;40.122;18.294;2022-07-29T18:17:07;8.43;;;5.30;;
54033;SDS011;39952;40.122;18.294;2022-07-29T18:20:15;8.43;;;5.43;;
54033;SDS011;39952;40.122;18.294;2022-07-29T18:26:29;8.55;;;4.78;;
54033;SDS011;39952;40.122;18.294;2022-07-29T18:29:35;8.80;;;5.10;;
54033;SDS011;39952;40.122;18.294;2022-07-29T18:32:42;10.88;;;5.50;;
54033;SDS011;39952;40.122;18.294;2022-07-29T18:35:59;7.53;;;5.32;;
54033;SDS011;39952;40.122;18.294;2022-07-29T18:39:06;9.73;;;5.10;;
54033;SDS011;39952;40.122;18.294;2022-07-29T18:42:13;8.02;;;5.30;;
54033;SDS011;39952;40.122;18.294;2022-07-29T18:45:21;7.40;;;5.15;;
54033;SDS011;39952;40.122;18.294;2022-07-29T18:48:28;9.02;;;5.45;;
54033;SDS011;39952;40.122;18.294;2022-07-29T18:51:37;10.52;;;5.25;;
54033;SDS011;39952;40.122;18.294;2022-07-29T18:54:44;7.70;;;5.28;;
54033;SDS011;39952;40.122;18.294;2022-07-29T18:57:51;9.20;;;5.47;;
54033;SDS011;39952;40.122;18.294;2022-07-29T19:00:59;9.40;;;5.45;;
54033;SDS011;39952;40.122;18.294;2022-07-29T19:04:05;9.75;;;4.90;;
54033;SDS011;39952;40.122;18.294;2022-07-29T19:07:13;10.38;;;5.93;;
54033;SDS011;39952;40.122;18.294;2022-07-29T19:10:21;12.45;;;5.88;;
54033;SDS011;39952;40.122;18.294;2022-07-29T19:13:27;9.93;;;6.28;;
54033;SDS011;39952;40.122;18.294;2022-07-29T19:16:34;12.98;;;6.22;;
54033;SDS011;39952;40.122;18.294;2022-07-29T19:19:41;12.10;;;6.60;;
54033;SDS011;39952;40.122;18.294;2022-07-29T19:22:49;8.55;;;5.15;;
54033;SDS011;39952;40.122;18.294;2022-07-29T19:25:56;11.65;;;5.60;;